createdAt,value
2023-05-23T00:02:16.569Z,0.20
2023-05-23T00:04:45.918Z,0.20
2023-05-23T00:07:13.909Z,0.20
2023-05-23T00:09:41.820Z,0.32
2023-05-23T00:12:09.993Z,0.20
2023-05-23T00:14:40.180Z,0.20
2023-05-23T00:17:10.646Z,0.30
2023-05-23T00:19:38.834Z,0.30
2023-05-23T00:22:08.170Z,0.30
2023-05-23T00:24:36.412Z,0.40
2023-05-23T00:27:04.865Z,0.20
2023-05-23T00:29:32.727Z,0.28
2023-05-23T00:32:00.659Z,0.20
2023-05-23T00:34:28.606Z,0.30
2023-05-23T00:36:56.602Z,0.28
2023-05-23T00:39:25.931Z,0.30
2023-05-23T00:41:53.908Z,0.30
2023-05-23T00:44:22.598Z,0.30
2023-05-23T00:46:56.162Z,0.30
2023-05-23T00:51:56.204Z,0.20
2023-05-23T00:54:31.046Z,0.30
2023-05-23T00:57:00.089Z,0.30
2023-05-23T00:59:28.560Z,0.22
2023-05-23T01:02:00.392Z,0.20
2023-05-23T01:04:28.596Z,0.30
2023-05-23T01:06:57.696Z,0.20
2023-05-23T01:09:30.357Z,0.40
2023-05-23T01:12:18.448Z,0.30
2023-05-23T01:14:55.086Z,0.20
2023-05-23T01:17:45.762Z,0.20
2023-05-23T01:20:19.334Z,0.30
2023-05-23T01:23:15.451Z,0.30
2023-05-23T01:26:12.818Z,0.30
2023-05-23T01:28:48.310Z,0.20
2023-05-23T01:31:19.308Z,0.30
2023-05-23T01:33:50.189Z,0.30
2023-05-23T01:36:18.249Z,0.30
2023-05-23T01:38:46.212Z,0.25
2023-05-23T01:41:14.166Z,0.22
2023-05-23T01:43:44.055Z,0.40
2023-05-23T01:46:13.038Z,0.30
2023-05-23T01:48:42.250Z,0.30
2023-05-23T01:51:10.385Z,0.30
2023-05-23T01:53:38.933Z,0.30
2023-05-23T01:56:07.329Z,0.20
2023-05-23T01:58:35.534Z,0.30
2023-05-23T02:01:05.227Z,0.30
2023-05-23T02:06:01.184Z,0.20
2023-05-23T02:08:29.160Z,0.20
2023-05-23T02:10:57.135Z,0.20
2023-05-23T02:13:25.068Z,0.20
2023-05-23T02:15:52.994Z,0.30
2023-05-23T02:18:22.960Z,0.30
2023-05-23T02:20:50.939Z,0.30
2023-05-23T02:23:18.944Z,0.30
2023-05-23T02:25:46.972Z,0.30
2023-05-23T02:28:15.285Z,0.30
2023-05-23T02:30:43.180Z,0.25
2023-05-23T02:33:11.184Z,0.30
2023-05-23T02:35:41.668Z,0.30
2023-05-23T02:38:09.830Z,0.30
2023-05-23T02:40:37.798Z,0.20
2023-05-23T02:43:05.762Z,0.20
2023-05-23T02:45:33.787Z,0.20
2023-05-23T02:48:01.820Z,0.30
2023-05-23T02:50:29.928Z,0.20
2023-05-23T02:52:59.270Z,0.30
2023-05-23T02:55:27.683Z,0.20
2023-05-23T02:57:56.796Z,0.20
2023-05-23T03:00:24.789Z,0.20
2023-05-23T03:02:52.843Z,0.30
2023-05-23T03:05:21.184Z,0.30
2023-05-23T03:07:49.233Z,0.20
2023-05-23T03:10:18.948Z,0.30
2023-05-23T03:12:47.855Z,0.22
2023-05-23T03:15:15.939Z,0.20
2023-05-23T03:17:44.028Z,0.30
2023-05-23T03:20:12.989Z,0.30
2023-05-23T03:22:43.450Z,0.20
2023-05-23T03:25:11.469Z,0.30
2023-05-23T03:27:40.851Z,0.38
2023-05-23T03:30:10.400Z,0.30
2023-05-23T03:32:38.440Z,0.30
2023-05-23T03:35:07.501Z,0.30
2023-05-23T03:37:35.495Z,0.20
2023-05-23T03:40:03.717Z,0.20
2023-05-23T03:42:32.207Z,0.38
2023-05-23T03:45:01.653Z,0.40
2023-05-23T03:47:29.679Z,0.30
2023-05-23T03:49:57.701Z,0.30
2023-05-23T03:52:25.736Z,0.30
2023-05-23T03:54:53.792Z,0.20
2023-05-23T03:57:22.837Z,0.30
2023-05-23T03:59:51.153Z,0.20
2023-05-23T04:02:20.808Z,0.30
2023-05-23T04:04:48.860Z,0.40
2023-05-23T04:07:17.113Z,0.30
2023-05-23T04:09:45.107Z,0.30
2023-05-23T04:12:13.397Z,0.38
2023-05-23T04:14:41.385Z,0.30
2023-05-23T04:17:10.080Z,0.20
2023-05-23T04:19:39.439Z,0.30
2023-05-23T04:22:07.497Z,0.35
2023-05-23T04:24:35.703Z,0.22
2023-05-23T04:27:03.743Z,0.30
2023-05-23T04:29:33.265Z,0.20
2023-05-23T04:32:01.323Z,0.30
2023-05-23T04:34:30.570Z,0.30
2023-05-23T04:37:01.807Z,0.30
2023-05-23T04:39:29.917Z,0.30
2023-05-23T04:41:58.269Z,0.20
2023-05-23T04:44:26.706Z,0.30
2023-05-23T04:46:56.556Z,0.30
2023-05-23T04:49:25.514Z,0.30
2023-05-23T04:51:53.463Z,0.30
2023-05-23T04:54:22.786Z,0.30
2023-05-23T04:56:51.237Z,0.25
2023-05-23T04:59:19.208Z,0.30
2023-05-23T05:01:47.111Z,0.20
2023-05-23T05:04:15.562Z,0.20
2023-05-23T05:06:43.517Z,0.40
2023-05-23T05:09:11.508Z,0.32
2023-05-23T05:11:40.916Z,0.30
2023-05-23T05:14:08.845Z,0.40
2023-05-23T05:16:37.779Z,0.20
2023-05-23T05:19:06.482Z,0.25
2023-05-23T05:21:34.445Z,0.20
2023-05-23T05:24:02.416Z,0.20
2023-05-23T05:26:30.932Z,0.28
2023-05-23T05:29:00.261Z,0.30
2023-05-23T05:31:29.017Z,0.20
2023-05-23T05:33:57.027Z,0.30
2023-05-23T05:36:24.961Z,0.30
2023-05-23T05:38:53.302Z,0.28
2023-05-23T05:41:22.115Z,0.20
2023-05-23T05:43:50.089Z,0.20
2023-05-23T05:46:19.536Z,0.20
2023-05-23T05:48:47.615Z,0.20
2023-05-23T05:51:16.307Z,0.22
2023-05-23T05:53:44.223Z,0.30
2023-05-23T05:56:12.141Z,0.20
2023-05-23T05:58:40.197Z,0.20
2023-05-23T06:01:08.186Z,0.20
2023-05-23T06:03:37.792Z,0.20
2023-05-23T06:08:34.801Z,0.30
2023-05-23T06:11:02.860Z,0.30
2023-05-23T06:13:30.772Z,0.30
2023-05-23T06:15:59.031Z,0.30
2023-05-23T06:18:27.065Z,0.30
2023-05-23T06:20:57.420Z,0.30
2023-05-23T06:23:25.438Z,0.20
2023-05-23T06:25:53.491Z,0.30
2023-05-23T06:28:21.543Z,0.20
2023-05-23T06:30:49.566Z,0.20
2023-05-23T06:33:17.564Z,0.20
2023-05-23T06:35:45.848Z,0.20
2023-05-23T06:38:17.069Z,0.20
2023-05-23T06:40:45.772Z,0.30
2023-05-23T06:43:13.770Z,0.20
2023-05-23T06:45:41.764Z,0.30
2023-05-23T06:48:09.722Z,0.20
2023-05-23T06:50:37.694Z,0.30
2023-05-23T06:53:06.394Z,0.30
2023-05-23T06:55:35.868Z,0.28
2023-05-23T06:58:05.064Z,0.20
2023-05-23T07:00:33.261Z,0.20
2023-05-23T07:03:03.885Z,0.20
2023-05-23T07:05:33.324Z,0.30
2023-05-23T07:08:01.524Z,0.22
2023-05-23T07:10:29.426Z,0.20
2023-05-23T07:12:58.693Z,0.30
2023-05-23T07:15:26.621Z,0.20
2023-05-23T07:17:54.553Z,0.10
2023-05-23T07:20:22.665Z,0.20
2023-05-23T07:22:51.562Z,0.20
2023-05-23T07:25:19.714Z,0.20
2023-05-23T07:27:47.617Z,0.20
2023-05-23T07:30:17.318Z,0.20
2023-05-23T07:32:45.378Z,0.40
2023-05-23T07:35:13.318Z,0.20
2023-05-23T07:37:41.278Z,0.20
2023-05-23T07:40:10.415Z,0.20
2023-05-23T07:42:38.576Z,0.30
2023-05-23T07:45:07.848Z,0.30
2023-05-23T07:47:37.305Z,0.30
2023-05-23T07:50:06.274Z,0.13
2023-05-23T07:52:34.401Z,0.30
2023-05-23T07:55:02.982Z,0.20
2023-05-23T07:57:30.914Z,0.20
2023-05-23T07:59:59.066Z,0.20
2023-05-23T08:02:27.077Z,0.20
2023-05-23T08:04:56.927Z,0.20
2023-05-23T08:09:53.001Z,0.20
2023-05-23T08:12:20.981Z,0.20
2023-05-23T08:14:51.266Z,0.20
2023-05-23T08:17:20.540Z,0.20
2023-05-23T08:19:48.762Z,0.10
2023-05-23T08:22:18.180Z,0.20
2023-05-23T08:24:46.135Z,0.20
2023-05-23T08:27:14.218Z,0.20
2023-05-23T08:29:42.815Z,0.20
2023-05-23T08:32:11.227Z,0.20
2023-05-23T08:34:39.278Z,0.20
2023-05-23T08:37:07.532Z,0.20
2023-05-23T08:39:37.070Z,0.28
2023-05-23T08:42:05.912Z,0.28
2023-05-23T08:44:37.051Z,0.30
2023-05-23T08:47:06.593Z,0.15
2023-05-23T08:49:35.199Z,0.10
2023-05-23T08:52:04.747Z,0.20
2023-05-23T08:54:33.884Z,0.20
2023-05-23T08:57:03.655Z,0.25
2023-05-23T09:02:09.573Z,0.25
2023-05-23T09:04:37.574Z,0.20
2023-05-23T09:07:06.639Z,0.10
2023-05-23T09:09:34.873Z,0.20
2023-05-23T09:12:04.334Z,0.20
2023-05-23T09:14:32.548Z,0.30
2023-05-23T09:17:04.798Z,0.20
2023-05-23T09:19:33.408Z,0.20
2023-05-23T09:22:04.872Z,0.20
2023-05-23T09:24:37.013Z,0.20
2023-05-23T09:27:08.190Z,0.20
2023-05-23T09:29:40.410Z,0.10
2023-05-23T09:32:16.911Z,0.20
2023-05-23T09:34:58.005Z,0.20
2023-05-23T09:37:32.888Z,0.20
2023-05-23T09:40:02.355Z,0.20
2023-05-23T09:42:35.223Z,0.20
2023-05-23T09:45:04.922Z,0.20
2023-05-23T09:47:33.331Z,0.28
2023-05-23T09:50:01.415Z,0.15
2023-05-23T09:52:37.274Z,0.15
2023-05-23T09:55:06.558Z,0.10
2023-05-23T09:57:38.883Z,0.20
2023-05-23T10:00:11.175Z,0.20
2023-05-23T10:02:59.487Z,0.20
2023-05-23T10:05:39.107Z,0.20
2023-05-23T10:08:15.263Z,0.20
2023-05-23T10:11:57.179Z,0.30
2023-05-23T10:14:31.093Z,0.20
2023-05-23T10:17:08.889Z,0.20
2023-05-23T10:19:46.147Z,0.25
2023-05-23T10:22:16.169Z,0.30
2023-05-23T10:24:46.662Z,0.20
2023-05-23T10:27:15.915Z,0.20
2023-05-23T10:29:45.785Z,0.20
2023-05-23T10:32:16.023Z,0.20
2023-05-23T10:34:58.884Z,0.20
2023-05-23T10:37:36.812Z,0.20
2023-05-23T10:40:14.624Z,0.10
2023-05-23T10:42:54.046Z,0.20
2023-05-23T10:45:25.330Z,0.20
2023-05-23T10:47:54.668Z,0.20
2023-05-23T10:50:34.104Z,0.30
2023-05-23T10:53:04.031Z,0.30
2023-05-23T10:55:37.321Z,0.17
2023-05-23T10:58:14.154Z,0.20
2023-05-23T11:00:54.218Z,0.20
2023-05-23T11:03:35.184Z,0.20
2023-05-23T11:06:04.659Z,0.20
2023-05-23T11:08:48.419Z,0.30
2023-05-23T11:11:16.969Z,0.20
2023-05-23T11:14:03.301Z,0.10
2023-05-23T11:16:42.356Z,0.13
2023-05-23T11:19:28.270Z,0.20
2023-05-23T11:22:00.400Z,0.20
2023-05-23T11:24:52.059Z,0.20
2023-05-23T11:27:28.435Z,0.20
2023-05-23T11:30:01.702Z,0.20
2023-05-23T11:32:32.340Z,0.30
2023-05-23T11:35:05.123Z,0.20
2023-05-23T11:37:34.478Z,0.30
2023-05-23T11:40:30.721Z,0.25
2023-05-23T11:43:00.676Z,0.25
2023-05-23T11:45:30.366Z,0.20
2023-05-23T11:48:00.114Z,0.20
2023-05-23T11:52:56.732Z,0.20
2023-05-23T11:55:25.225Z,0.20
2023-05-23T11:57:53.443Z,0.20
2023-05-23T12:00:22.119Z,0.20
2023-05-23T12:02:50.355Z,0.22
2023-05-23T12:05:20.058Z,0.22
2023-05-23T12:07:51.246Z,0.20
2023-05-23T12:10:21.767Z,0.20
2023-05-23T12:12:52.489Z,0.28
2023-05-23T12:15:20.581Z,0.20
2023-05-23T12:17:49.620Z,0.20
2023-05-23T12:20:21.255Z,0.20
2023-05-23T12:22:49.661Z,0.20
2023-05-23T12:25:18.665Z,0.22
2023-05-23T12:27:49.873Z,0.20
2023-05-23T12:30:18.776Z,0.20
2023-05-23T12:32:47.894Z,0.20
2023-05-23T12:35:17.002Z,0.30
2023-05-23T12:37:48.528Z,0.30
2023-05-23T12:40:18.499Z,0.20
2023-05-23T12:42:52.847Z,0.20
2023-05-23T12:45:21.559Z,0.20
2023-05-23T12:47:51.413Z,0.30
2023-05-23T12:50:21.056Z,0.25
2023-05-23T12:52:50.493Z,0.30
2023-05-23T12:55:18.515Z,0.28
2023-05-23T12:57:46.502Z,0.20
2023-05-23T13:00:15.992Z,0.20
2023-05-23T13:02:44.237Z,0.22
2023-05-23T13:05:12.357Z,0.30
2023-05-23T13:07:40.360Z,0.20
2023-05-23T13:10:11.699Z,0.20
2023-05-23T13:12:39.771Z,0.30
2023-05-23T13:15:09.648Z,0.20
2023-05-23T13:17:37.740Z,0.28
2023-05-23T13:20:07.436Z,0.30
2023-05-23T13:22:35.470Z,0.28
2023-05-23T13:25:03.533Z,0.20
2023-05-23T13:27:32.899Z,0.20
2023-05-23T13:30:01.312Z,0.30
2023-05-23T13:32:29.391Z,0.20
2023-05-23T13:34:57.412Z,0.17
2023-05-23T13:37:25.974Z,0.30
2023-05-23T13:39:53.986Z,0.30
2023-05-23T13:42:22.089Z,0.30
2023-05-23T13:44:51.460Z,0.30
2023-05-23T13:47:19.444Z,0.20
2023-05-23T13:49:47.517Z,0.30
2023-05-23T13:52:15.865Z,0.30
2023-05-23T13:54:44.018Z,0.30
2023-05-23T13:57:11.966Z,0.30
2023-05-23T13:59:39.983Z,0.32
2023-05-23T14:02:09.743Z,0.20
2023-05-23T14:07:05.693Z,0.20
2023-05-23T14:09:33.617Z,0.30
2023-05-23T14:12:01.658Z,0.30
2023-05-23T14:14:29.673Z,0.20
2023-05-23T14:16:59.085Z,0.20
2023-05-23T14:19:28.602Z,0.20
2023-05-23T14:21:56.619Z,0.20
2023-05-23T14:24:24.707Z,0.20
2023-05-23T14:26:52.756Z,0.30
2023-05-23T14:29:20.857Z,0.20
2023-05-23T14:31:48.816Z,0.30
2023-05-23T14:34:16.890Z,0.20
2023-05-23T14:36:46.317Z,0.30
2023-05-23T14:39:14.370Z,0.38
2023-05-23T14:41:42.316Z,0.30
2023-05-23T14:44:10.285Z,0.20
2023-05-23T14:46:38.306Z,0.30
2023-05-23T14:49:06.373Z,0.20
2023-05-23T14:51:45.327Z,0.22
2023-05-23T14:54:18.299Z,0.30
2023-05-23T14:56:46.326Z,0.30
2023-05-23T14:59:15.198Z,0.20
2023-05-23T15:01:43.718Z,0.30
2023-05-23T15:04:12.024Z,0.20
2023-05-23T15:06:40.438Z,0.30
2023-05-23T15:09:10.462Z,0.30
2023-05-23T15:11:40.387Z,0.30
2023-05-23T15:14:08.391Z,0.30
2023-05-23T15:16:36.798Z,0.30
2023-05-23T15:19:05.717Z,0.30
2023-05-23T15:21:33.989Z,0.30
2023-05-23T15:24:02.001Z,0.30
2023-05-23T15:26:30.729Z,0.30
2023-05-23T15:29:00.142Z,0.30
2023-05-23T15:31:28.634Z,0.30
2023-05-23T15:33:56.653Z,0.40
2023-05-23T15:36:24.737Z,0.20
2023-05-23T15:38:52.676Z,0.20
2023-05-23T15:41:20.727Z,0.30
2023-05-23T15:43:48.645Z,0.30
2023-05-23T15:46:18.080Z,0.30
2023-05-23T15:48:46.049Z,0.30
2023-05-23T15:51:14.055Z,0.30
2023-05-23T15:54:00.060Z,0.30
2023-05-23T15:56:28.966Z,0.30
2023-05-23T15:58:57.297Z,0.25
2023-05-23T16:01:26.710Z,0.30
2023-05-23T16:03:54.739Z,0.40
2023-05-23T16:06:23.677Z,0.30
2023-05-23T16:08:51.532Z,0.40
2023-05-23T16:11:19.441Z,0.30
2023-05-23T16:13:47.256Z,0.38
2023-05-23T16:16:15.623Z,0.30
2023-05-23T16:18:44.989Z,0.30
2023-05-23T16:21:12.906Z,0.35
2023-05-23T16:23:41.081Z,0.30
2023-05-23T16:26:09.001Z,0.40
2023-05-23T16:28:37.072Z,0.40
2023-05-23T16:31:05.370Z,0.47
2023-05-23T16:33:33.391Z,0.45
2023-05-23T16:36:02.687Z,0.45
2023-05-23T16:38:30.644Z,0.40
2023-05-23T16:40:58.602Z,0.30
2023-05-23T16:43:26.613Z,0.38
2023-05-23T16:45:54.678Z,0.38
2023-05-23T16:48:22.697Z,0.30
2023-05-23T16:50:50.643Z,0.30
2023-05-23T16:53:19.940Z,0.40
2023-05-23T16:55:48.197Z,0.30
2023-05-23T16:58:18.591Z,0.40
2023-05-23T17:00:49.655Z,0.30
2023-05-23T17:03:17.730Z,0.40
2023-05-23T17:05:46.133Z,0.45
2023-05-23T17:08:14.151Z,0.30
2023-05-23T17:10:43.673Z,0.38
2023-05-23T17:15:39.806Z,0.40
2023-05-23T17:18:08.049Z,0.30
2023-05-23T17:20:36.183Z,0.40
2023-05-23T17:23:05.350Z,0.35
2023-05-23T17:25:33.310Z,0.40
2023-05-23T17:28:10.124Z,0.40
2023-05-23T17:30:41.494Z,0.40
2023-05-23T17:33:10.813Z,0.40
2023-05-23T17:35:38.814Z,0.40
2023-05-23T17:38:06.814Z,0.40
2023-05-23T17:40:34.899Z,0.50
2023-05-23T17:43:04.201Z,0.40
2023-05-23T17:45:32.311Z,0.38
2023-05-23T17:48:03.387Z,0.40
2023-05-23T17:50:31.681Z,0.50
2023-05-23T17:53:00.487Z,0.50
2023-05-23T17:55:29.426Z,0.40
2023-05-23T17:57:57.407Z,0.40
2023-05-23T18:00:26.904Z,0.30
2023-05-23T18:02:55.018Z,0.30
2023-05-23T18:05:23.759Z,0.40
2023-05-23T18:07:51.828Z,0.40
2023-05-23T18:10:19.761Z,0.50
2023-05-23T18:12:47.760Z,0.32
2023-05-23T18:15:15.894Z,0.40
2023-05-23T18:17:45.380Z,0.40
2023-05-23T18:20:14.087Z,0.40
2023-05-23T18:22:42.050Z,0.30
2023-05-23T18:25:10.769Z,0.40
2023-05-23T18:27:38.917Z,0.40
2023-05-23T18:30:09.041Z,0.40
2023-05-23T18:32:37.232Z,0.30
2023-05-23T18:35:08.203Z,0.50
2023-05-23T18:37:36.188Z,0.32
2023-05-23T18:40:04.218Z,0.40
2023-05-23T18:42:32.121Z,0.40
2023-05-23T18:45:00.162Z,0.47
2023-05-23T18:47:28.243Z,0.30
2023-05-23T18:49:57.632Z,0.40
2023-05-23T18:52:26.943Z,0.30
2023-05-23T18:54:54.957Z,0.38
2023-05-23T18:57:23.620Z,0.43
2023-05-23T18:59:51.955Z,0.40
2023-05-23T19:02:20.090Z,0.40
2023-05-23T19:04:48.147Z,0.40
2023-05-23T19:07:17.960Z,0.40
2023-05-23T19:12:15.600Z,0.30
2023-05-23T19:14:43.747Z,0.40
2023-05-23T19:17:11.742Z,0.30
2023-05-23T19:19:39.811Z,0.35
2023-05-23T19:22:07.893Z,0.38
2023-05-23T19:24:36.078Z,0.30
2023-05-23T19:27:06.370Z,0.32
2023-05-23T19:29:34.274Z,0.30
2023-05-23T19:32:02.282Z,0.40
2023-05-23T19:34:33.172Z,0.40
2023-05-23T19:37:01.817Z,0.40
2023-05-23T19:39:29.830Z,0.32
2023-05-23T19:41:57.890Z,0.30
2023-05-23T19:44:27.290Z,0.40
2023-05-23T19:46:55.233Z,0.40
2023-05-23T19:49:23.190Z,0.40
2023-05-23T19:51:51.182Z,0.40
2023-05-23T19:54:20.482Z,0.50
2023-05-23T19:56:48.540Z,0.40
2023-05-23T19:59:16.538Z,0.32
2023-05-23T20:01:46.268Z,0.40
2023-05-23T20:06:44.840Z,0.30
2023-05-23T20:09:13.008Z,0.40
2023-05-23T20:11:42.765Z,0.30
2023-05-23T20:16:38.624Z,0.50
2023-05-23T20:19:14.888Z,0.40
2023-05-23T20:21:43.158Z,0.40
2023-05-23T20:24:11.765Z,0.40
2023-05-23T20:26:41.980Z,0.47
2023-05-23T20:29:10.039Z,0.50
2023-05-23T20:31:38.096Z,0.40
2023-05-23T20:34:09.728Z,0.40
2023-05-23T20:36:37.877Z,0.38
2023-05-23T20:39:06.427Z,0.40
2023-05-23T20:41:34.460Z,0.55
2023-05-23T20:44:02.594Z,0.38
2023-05-23T20:46:30.649Z,0.40
2023-05-23T20:49:01.259Z,0.40
2023-05-23T20:51:34.223Z,0.45
2023-05-23T20:54:05.928Z,0.50
2023-05-23T20:56:34.616Z,0.40
2023-05-23T20:59:03.289Z,0.50
2023-05-23T21:01:32.062Z,0.43
2023-05-23T21:04:01.419Z,0.60
2023-05-23T21:06:40.550Z,0.30
2023-05-23T21:09:09.789Z,0.57
2023-05-23T21:11:37.772Z,0.50
2023-05-23T21:14:05.735Z,0.60
2023-05-23T21:16:33.728Z,0.43
2023-05-23T21:19:01.998Z,0.50
2023-05-23T21:21:31.417Z,0.47
2023-05-23T21:24:01.556Z,0.50
2023-05-23T21:26:29.583Z,0.50
2023-05-23T21:28:57.641Z,0.40
2023-05-23T21:31:40.251Z,0.50
2023-05-23T21:34:22.279Z,0.50
2023-05-23T21:36:52.819Z,0.40
2023-05-23T21:39:21.333Z,0.40
2023-05-23T21:41:49.336Z,0.60
2023-05-23T21:44:18.790Z,0.60
2023-05-23T21:46:47.194Z,0.50
2023-05-23T21:49:15.580Z,0.50
2023-05-23T21:51:44.105Z,0.40
2023-05-23T21:54:13.491Z,0.40
2023-05-23T21:56:41.530Z,0.60
2023-05-23T21:59:10.003Z,0.50
2023-05-23T22:01:38.127Z,0.40
2023-05-23T22:04:06.441Z,0.50
2023-05-23T22:06:34.765Z,0.50
2023-05-23T22:09:02.747Z,0.50
2023-05-23T22:11:34.003Z,0.57
2023-05-23T22:14:02.419Z,0.45
2023-05-23T22:16:32.864Z,0.50
2023-05-23T22:19:02.067Z,0.50
2023-05-23T22:21:30.267Z,0.40
2023-05-23T22:23:58.653Z,0.47
2023-05-23T22:26:26.968Z,0.50
2023-05-23T22:28:56.791Z,0.50
2023-05-23T22:31:24.872Z,0.60
2023-05-23T22:33:53.281Z,0.50
2023-05-23T22:36:22.351Z,0.50
2023-05-23T22:38:50.796Z,0.60
2023-05-23T22:41:18.938Z,0.50
2023-05-23T22:43:47.132Z,0.52
2023-05-23T22:46:16.742Z,0.60
2023-05-23T22:48:45.031Z,0.60
2023-05-23T22:51:14.531Z,0.50
2023-05-23T22:53:43.230Z,0.40
2023-05-23T22:56:11.330Z,0.50
2023-05-23T22:58:39.395Z,0.52
2023-05-23T23:01:07.541Z,0.60
2023-05-23T23:03:37.121Z,0.50
2023-05-23T23:06:07.467Z,0.60
2023-05-23T23:08:35.437Z,0.50
2023-05-23T23:11:03.565Z,0.50
2023-05-23T23:13:31.604Z,0.40
2023-05-23T23:15:59.638Z,0.50
2023-05-23T23:18:27.846Z,0.40
2023-05-23T23:20:57.108Z,0.40
2023-05-23T23:23:25.011Z,0.47
2023-05-23T23:25:52.977Z,0.40
2023-05-23T23:28:22.115Z,0.60
2023-05-23T23:30:50.100Z,0.45
2023-05-23T23:33:18.112Z,0.60
2023-05-23T23:35:48.491Z,0.40
2023-05-23T23:38:18.054Z,0.50
2023-05-23T23:40:46.055Z,0.60
2023-05-23T23:43:14.240Z,0.47
2023-05-23T23:45:42.278Z,0.50
2023-05-23T23:48:10.503Z,0.60
2023-05-23T23:50:39.052Z,0.50
2023-05-23T23:53:07.751Z,0.55
2023-05-23T23:55:37.113Z,0.57
2023-05-23T23:58:05.136Z,0.40
